Southview, Pennsylvania
Current Conditions -  °F | °C
As of 11:51 PM on Friday 21 Nov 2014 (Local Time) from KPIT Reporting Station
Clear Clear  
Wind Chill: 18°   Ceiling: Unl
Heat Index: 18°   Visibility: 10mi
Dew Point: 10°   Wind: 3mph
Humidity: 71%   Direction: 140°SE
Pressure: 30.41"   Gusts: NA
Location:  40.33°N, 80.26°W
Report Text: KPIT 220451Z 14003KT 10SM CLR M08/M12 A3041 RMK AO2 SLP324 T10781122 410221094
Loading
Personal Weather Stations






























Interactive Weather Map New forecast layout! Learn more

10-Day Weather Forecast

Advertisements
Track Severe Weather on mobile